SAS904 KEWR-ESSA
Flight info
| Callsign | SAS904 |
|---|---|
| Flight time | N/A |
| Altitude | 35000 |
| Route | DCT GREKI DCT JUDDS DCT MARTN DCT CEFOU DCT ALSOP DCT SAVRY DCT 62N050W 64N040W 65N030W 66N020W 66N010W/N0469F370 65N000E DCT GIKOR DCT SUVAR DCT ELTOK |
| Aircraft | A343/H-SDE1FGHIJ1RWXYZ/LB1 |
Departure
| Time | 2026-04-20 06:01 |
|---|---|
| Airport | Newark Liberty International Airport (KEWR) |
Arrival
| Time | N/A |
|---|---|
| Airport | Stockholm-Arlanda Airport (ESSA) |
| Time | Latitude | Longitude | Altitude | Speed | Heading |
|---|---|---|---|---|---|
| 2026-04-20 05:43 | 40.69241 | -74.17522 | 26 ft | 0 kts | 146° |
| 2026-04-20 05:47 | 40.69261 | -74.17535 | 26 ft | 4 kts | 177° |
| 2026-04-20 05:47 | 40.69285 | -74.17527 | 26 ft | 4 kts | 217° |
| 2026-04-20 05:47 | 40.69304 | -74.17505 | 31 ft | 2 kts | 218° |
| 2026-04-20 05:48 | 40.69322 | -74.17487 | 28 ft | 4 kts | 211° |
| 2026-04-20 05:48 | 40.69345 | -74.17475 | 26 ft | 4 kts | 175° |
| 2026-04-20 05:48 | 40.69359 | -74.17480 | 26 ft | 1 kts | 139° |
| 2026-04-20 05:48 | 40.69347 | -74.17456 | 26 ft | 4 kts | 114° |
| 2026-04-20 05:49 | 40.69340 | -74.17422 | 28 ft | 4 kts | 102° |
| 2026-04-20 05:49 | 40.69336 | -74.17398 | 26 ft | 0 kts | 102° |
| 2026-04-20 05:53 | 40.69334 | -74.17387 | 26 ft | 2 kts | 103° |
| 2026-04-20 05:53 | 40.69327 | -74.17359 | 31 ft | 4 kts | 109° |
| 2026-04-20 05:53 | 40.69313 | -74.17317 | 26 ft | 6 kts | 117° |
| 2026-04-20 05:54 | 40.69290 | -74.17265 | 27 ft | 7 kts | 120° |
| 2026-04-20 05:54 | 40.69263 | -74.17203 | 27 ft | 8 kts | 119° |
| 2026-04-20 05:54 | 40.69235 | -74.17133 | 26 ft | 9 kts | 117° |
| 2026-04-20 05:54 | 40.69196 | -74.17077 | 26 ft | 8 kts | 163° |
| 2026-04-20 05:55 | 40.69142 | -74.17088 | 29 ft | 9 kts | 199° |
| 2026-04-20 05:55 | 40.69082 | -74.17125 | 27 ft | 10 kts | 206° |
| 2026-04-20 05:55 | 40.69014 | -74.17167 | 31 ft | 11 kts | 206° |
| 2026-04-20 05:55 | 40.68941 | -74.17214 | 26 ft | 12 kts | 206° |
| 2026-04-20 05:56 | 40.68865 | -74.17262 | 26 ft | 12 kts | 206° |
| 2026-04-20 05:56 | 40.68785 | -74.17313 | 26 ft | 13 kts | 205° |
| 2026-04-20 05:56 | 40.68701 | -74.17366 | 27 ft | 14 kts | 206° |
| 2026-04-20 05:56 | 40.68614 | -74.17421 | 27 ft | 14 kts | 206° |
| 2026-04-20 05:57 | 40.68523 | -74.17479 | 27 ft | 15 kts | 206° |
| 2026-04-20 05:57 | 40.68429 | -74.17540 | 26 ft | 15 kts | 206° |
| 2026-04-20 05:57 | 40.68332 | -74.17601 | 32 ft | 16 kts | 206° |
| 2026-04-20 05:57 | 40.68231 | -74.17665 | 30 ft | 16 kts | 206° |
| 2026-04-20 05:58 | 40.68129 | -74.17730 | 27 ft | 16 kts | 206° |
| 2026-04-20 05:58 | 40.68030 | -74.17793 | 28 ft | 15 kts | 206° |
| 2026-04-20 05:58 | 40.67938 | -74.17851 | 26 ft | 14 kts | 205° |
| 2026-04-20 05:58 | 40.67853 | -74.17906 | 31 ft | 13 kts | 206° |
| 2026-04-20 05:59 | 40.67771 | -74.17957 | 26 ft | 13 kts | 206° |
| 2026-04-20 05:59 | 40.67693 | -74.18007 | 30 ft | 12 kts | 205° |
| 2026-04-20 05:59 | 40.67626 | -74.18043 | 31 ft | 9 kts | 190° |
| 2026-04-20 05:59 | 40.67576 | -74.18010 | 31 ft | 8 kts | 129° |
| 2026-04-20 06:00 | 40.67560 | -74.17951 | 26 ft | 6 kts | 90° |
| 2026-04-20 06:00 | 40.67582 | -74.17919 | 26 ft | 5 kts | 33° |
| 2026-04-20 06:00 | 40.67622 | -74.17895 | 26 ft | 13 kts | 26° |
| 2026-04-20 06:00 | 40.67859 | -74.17744 | 29 ft | 66 kts | 26° |
| 2026-04-20 06:01 | 40.68428 | -74.17380 | 27 ft | 115 kts | 26° |
| 2026-04-20 06:01 | 40.69279 | -74.16840 | 31 ft | 155 kts | 25° |
| 2026-04-20 06:01 | 40.70270 | -74.16200 | 405 ft | 159 kts | 26° |
| 2026-04-20 06:01 | 40.71279 | -74.15547 | 822 ft | 165 kts | 27° |
| 2026-04-20 06:02 | 40.72221 | -74.14643 | 1207 ft | 173 kts | 45° |
| 2026-04-20 06:02 | 40.73065 | -74.13438 | 1510 ft | 186 kts | 48° |
| 2026-04-20 06:02 | 40.73978 | -74.12138 | 1777 ft | 200 kts | 46° |
| 2026-04-20 06:02 | 40.75086 | -74.10959 | 2097 ft | 210 kts | 26° |
| 2026-04-20 06:03 | 40.76538 | -74.10482 | 2355 ft | 224 kts | 355° |
| 2026-04-20 06:03 | 40.78036 | -74.11111 | 2682 ft | 233 kts | 320° |
| 2026-04-20 06:03 | 40.79000 | -74.12810 | 3251 ft | 235 kts | 292° |
| 2026-04-20 06:03 | 40.79271 | -74.14203 | 3740 ft | 238 kts | 280° |
| 2026-04-20 06:04 | 40.79453 | -74.16384 | 4442 ft | 241 kts | 278° |
| 2026-04-20 06:04 | 40.79609 | -74.18596 | 5159 ft | 243 kts | 278° |
| 2026-04-20 06:04 | 40.79785 | -74.20815 | 5887 ft | 243 kts | 279° |
| 2026-04-20 06:04 | 40.79980 | -74.23035 | 6581 ft | 244 kts | 280° |
| 2026-04-20 06:05 | 40.80235 | -74.25254 | 7202 ft | 245 kts | 289° |
| 2026-04-20 06:05 | 40.81104 | -74.27148 | 7826 ft | 245 kts | 316° |
| 2026-04-20 06:05 | 40.82607 | -74.28247 | 8425 ft | 254 kts | 340° |
| 2026-04-20 06:05 | 40.84371 | -74.28697 | 9028 ft | 261 kts | 346° |
| 2026-04-20 06:06 | 40.86188 | -74.29002 | 9580 ft | 265 kts | 347° |
| 2026-04-20 06:06 | 40.88023 | -74.29272 | 10104 ft | 270 kts | 347° |
| 2026-04-20 06:06 | 40.89943 | -74.29526 | 10390 ft | 285 kts | 347° |
| 2026-04-20 06:06 | 40.91975 | -74.29778 | 10607 ft | 300 kts | 347° |
| 2026-04-20 06:07 | 40.94106 | -74.30035 | 10822 ft | 314 kts | 347° |
| 2026-04-20 06:07 | 40.96347 | -74.30246 | 11035 ft | 333 kts | 353° |
| 2026-04-20 06:07 | 40.98717 | -74.29831 | 11256 ft | 358 kts | 10° |
| 2026-04-20 06:07 | 41.00991 | -74.28264 | 11599 ft | 382 kts | 33° |
| 2026-04-20 06:08 | 41.02912 | -74.25729 | 12013 ft | 396 kts | 45° |
| 2026-04-20 06:08 | 41.04542 | -74.22742 | 12452 ft | 404 kts | 52° |
| 2026-04-20 06:08 | 41.06034 | -74.19539 | 12858 ft | 412 kts | 55° |
| 2026-04-20 06:08 | 41.07477 | -74.16274 | 13250 ft | 418 kts | 56° |
| 2026-04-20 06:09 | 41.08965 | -74.12929 | 13733 ft | 422 kts | 56° |
| 2026-04-20 06:09 | 41.10490 | -74.09586 | 14171 ft | 426 kts | 55° |
| 2026-04-20 06:09 | 41.12067 | -74.06230 | 14587 ft | 431 kts | 54° |
| 2026-04-20 06:09 | 41.13690 | -74.02847 | 15016 ft | 436 kts | 54° |
| 2026-04-20 06:10 | 41.15336 | -73.99451 | 15422 ft | 441 kts | 54° |
| 2026-04-20 06:10 | 41.17011 | -73.96011 | 15798 ft | 446 kts | 55° |
| 2026-04-20 06:10 | 41.18715 | -73.92512 | 16111 ft | 454 kts | 56° |
| 2026-04-20 06:10 | 41.20432 | -73.88974 | 16516 ft | 458 kts | 56° |
| 2026-04-20 06:11 | 41.22169 | -73.85389 | 16919 ft | 462 kts | 56° |
| 2026-04-20 06:11 | 41.23915 | -73.81777 | 17274 ft | 467 kts | 57° |
| 2026-04-20 06:11 | 41.25654 | -73.78165 | 17611 ft | 471 kts | 57° |
| 2026-04-20 06:11 | 41.27430 | -73.74473 | 17997 ft | 476 kts | 57° |
| 2026-04-20 06:12 | 41.29221 | -73.70751 | 18385 ft | 480 kts | 57° |
| 2026-04-20 06:12 | 41.31028 | -73.66995 | 18733 ft | 485 kts | 58° |
| 2026-04-20 06:12 | 41.32854 | -73.63194 | 19103 ft | 489 kts | 58° |
| 2026-04-20 06:12 | 41.34697 | -73.59354 | 19451 ft | 494 kts | 58° |
| 2026-04-20 06:13 | 41.36557 | -73.55470 | 19739 ft | 500 kts | 58° |
| 2026-04-20 06:13 | 41.38434 | -73.51541 | 20118 ft | 504 kts | 59° |
| 2026-04-20 06:13 | 41.40324 | -73.47580 | 20487 ft | 508 kts | 59° |
| 2026-04-20 06:13 | 41.42226 | -73.43588 | 20778 ft | 512 kts | 59° |
| 2026-04-20 06:14 | 41.44143 | -73.39560 | 21045 ft | 517 kts | 59° |
| 2026-04-20 06:14 | 41.46055 | -73.35540 | 21354 ft | 521 kts | 59° |
| 2026-04-20 06:14 | 41.48195 | -73.31590 | 21627 ft | 528 kts | 49° |
| 2026-04-20 06:14 | 41.50646 | -73.27932 | 21946 ft | 531 kts | 47° |
| 2026-04-20 06:15 | 41.53219 | -73.24347 | 22237 ft | 535 kts | 45° |
| 2026-04-20 06:15 | 41.55863 | -73.20809 | 22520 ft | 539 kts | 44° |
| 2026-04-20 06:15 | 41.58688 | -73.17503 | 22813 ft | 541 kts | 34° |
| 2026-04-20 06:15 | 41.61871 | -73.14839 | 23065 ft | 541 kts | 22° |
| 2026-04-20 06:16 | 41.65327 | -73.13043 | 23291 ft | 535 kts | 8° |
| 2026-04-20 06:16 | 41.68955 | -73.12226 | 23549 ft | 523 kts | 354° |
| 2026-04-20 06:16 | 41.72549 | -73.12308 | 23793 ft | 514 kts | 345° |
| 2026-04-20 06:16 | 41.76115 | -73.12747 | 23951 ft | 514 kts | 342° |
| 2026-04-20 06:17 | 41.79672 | -73.13347 | 24220 ft | 515 kts | 341° |
| 2026-04-20 06:17 | 41.83230 | -73.14009 | 24554 ft | 516 kts | 341° |
| 2026-04-20 06:17 | 41.86793 | -73.14681 | 24919 ft | 518 kts | 341° |
| 2026-04-20 06:17 | 41.90381 | -73.15349 | 25152 ft | 522 kts | 341° |
| 2026-04-20 06:18 | 41.93947 | -73.15995 | 25376 ft | 525 kts | 341° |
| 2026-04-20 06:18 | 41.97582 | -73.16635 | 25615 ft | 528 kts | 341° |
| 2026-04-20 06:18 | 42.01234 | -73.17259 | 25934 ft | 529 kts | 342° |
| 2026-04-20 06:18 | 42.04894 | -73.17879 | 26208 ft | 530 kts | 342° |
| 2026-04-20 06:19 | 42.08564 | -73.18503 | 26454 ft | 532 kts | 342° |
| 2026-04-20 06:19 | 42.12254 | -73.19133 | 26630 ft | 535 kts | 342° |
| 2026-04-20 06:19 | 42.15959 | -73.19765 | 26865 ft | 537 kts | 342° |
| 2026-04-20 06:19 | 42.19676 | -73.20399 | 27091 ft | 539 kts | 342° |
| 2026-04-20 06:20 | 42.23404 | -73.21041 | 27351 ft | 541 kts | 342° |
| 2026-04-20 06:20 | 42.27143 | -73.21687 | 27580 ft | 543 kts | 342° |
| 2026-04-20 06:20 | 42.30891 | -73.22335 | 27824 ft | 543 kts | 342° |
| 2026-04-20 06:20 | 42.34651 | -73.22985 | 28024 ft | 546 kts | 343° |
| 2026-04-20 06:21 | 42.38434 | -73.23639 | 28206 ft | 549 kts | 343° |
| 2026-04-20 06:21 | 42.42233 | -73.24296 | 28451 ft | 550 kts | 343° |
| 2026-04-20 06:21 | 42.45995 | -73.24949 | 28625 ft | 552 kts | 343° |
| 2026-04-20 06:21 | 42.49813 | -73.25610 | 28817 ft | 553 kts | 343° |
| 2026-04-20 06:22 | 42.53684 | -73.25997 | 29059 ft | 565 kts | 352° |
| 2026-04-20 06:22 | 42.57635 | -73.25564 | 29338 ft | 577 kts | 4° |
| 2026-04-20 06:22 | 42.61545 | -73.24120 | 29603 ft | 587 kts | 17° |
| 2026-04-20 06:22 | 42.65289 | -73.21813 | 29807 ft | 591 kts | 24° |